sensor_id;sensor_type;location;lat;lon;timestamp;P1;durP1;ratioP1;P2;durP2;ratioP2
26598;SDS011;14240;51.064;16.612;2023-04-01T00:00:50;34.92;;;17.42;;
26598;SDS011;14240;51.064;16.612;2023-04-01T00:03:20;38.45;;;17.25;;
26598;SDS011;14240;51.064;16.612;2023-04-01T00:05:46;32.65;;;15.98;;
26598;SDS011;14240;51.064;16.612;2023-04-01T00:08:12;29.13;;;17.98;;
26598;SDS011;14240;51.064;16.612;2023-04-01T00:10:38;31.58;;;19.52;;
26598;SDS011;14240;51.064;16.612;2023-04-01T00:13:04;29.48;;;20.58;;
26598;SDS011;14240;51.064;16.612;2023-04-01T00:15:30;32.75;;;20.90;;
26598;SDS011;14240;51.064;16.612;2023-04-01T00:17:56;24.77;;;15.63;;
26598;SDS011;14240;51.064;16.612;2023-04-01T00:20:22;22.38;;;13.30;;
26598;SDS011;14240;51.064;16.612;2023-04-01T00:22:47;19.23;;;11.18;;
26598;SDS011;14240;51.064;16.612;2023-04-01T00:25:13;24.98;;;12.85;;
26598;SDS011;14240;51.064;16.612;2023-04-01T00:27:39;25.50;;;12.75;;
26598;SDS011;14240;51.064;16.612;2023-04-01T00:30:05;29.60;;;14.63;;
26598;SDS011;14240;51.064;16.612;2023-04-01T00:32:32;34.25;;;16.08;;
26598;SDS011;14240;51.064;16.612;2023-04-01T00:34:58;29.45;;;14.95;;
26598;SDS011;14240;51.064;16.612;2023-04-01T00:37:24;31.60;;;14.75;;
26598;SDS011;14240;51.064;16.612;2023-04-01T00:39:51;21.05;;;12.43;;
26598;SDS011;14240;51.064;16.612;2023-04-01T00:42:17;20.98;;;12.57;;
26598;SDS011;14240;51.064;16.612;2023-04-01T00:44:45;23.88;;;13.15;;
26598;SDS011;14240;51.064;16.612;2023-04-01T00:47:15;19.58;;;11.15;;
26598;SDS011;14240;51.064;16.612;2023-04-01T00:49:42;17.92;;;11.63;;
26598;SDS011;14240;51.064;16.612;2023-04-01T00:52:14;21.25;;;11.35;;
26598;SDS011;14240;51.064;16.612;2023-04-01T00:54:43;18.05;;;11.30;;
26598;SDS011;14240;51.064;16.612;2023-04-01T00:57:12;18.25;;;11.23;;
26598;SDS011;14240;51.064;16.612;2023-04-01T01:02:17;21.05;;;13.15;;
26598;SDS011;14240;51.064;16.612;2023-04-01T01:04:44;24.00;;;14.25;;
26598;SDS011;14240;51.064;16.612;2023-04-01T01:14:57;25.85;;;11.30;;
26598;SDS011;14240;51.064;16.612;2023-04-01T01:30:57;11.73;;;7.40;;
26598;SDS011;14240;51.064;16.612;2023-04-01T01:33:48;9.68;;;6.90;;
26598;SDS011;14240;51.064;16.612;2023-04-01T01:36:22;10.27;;;6.35;;
26598;SDS011;14240;51.064;16.612;2023-04-01T01:38:53;10.48;;;6.30;;
26598;SDS011;14240;51.064;16.612;2023-04-01T01:41:21;15.52;;;8.32;;
26598;SDS011;14240;51.064;16.612;2023-04-01T01:43:51;30.60;;;12.05;;
26598;SDS011;14240;51.064;16.612;2023-04-01T01:46:21;23.35;;;10.55;;
26598;SDS011;14240;51.064;16.612;2023-04-01T01:48:49;25.25;;;10.52;;
26598;SDS011;14240;51.064;16.612;2023-04-01T01:51:18;19.92;;;10.13;;
26598;SDS011;14240;51.064;16.612;2023-04-01T01:53:45;22.40;;;10.00;;
26598;SDS011;14240;51.064;16.612;2023-04-01T01:56:11;17.35;;;9.18;;
26598;SDS011;14240;51.064;16.612;2023-04-01T02:01:17;24.23;;;14.32;;
26598;SDS011;14240;51.064;16.612;2023-04-01T02:03:50;29.58;;;17.92;;
26598;SDS011;14240;51.064;16.612;2023-04-01T02:06:18;22.67;;;13.38;;
26598;SDS011;14240;51.064;16.612;2023-04-01T02:08:57;27.83;;;14.35;;
26598;SDS011;14240;51.064;16.612;2023-04-01T02:14:30;27.90;;;12.73;;
26598;SDS011;14240;51.064;16.612;2023-04-01T02:17:33;17.23;;;7.63;;
26598;SDS011;14240;51.064;16.612;2023-04-01T02:20:07;19.92;;;8.57;;
26598;SDS011;14240;51.064;16.612;2023-04-01T02:22:40;16.10;;;9.23;;
26598;SDS011;14240;51.064;16.612;2023-04-01T02:25:17;24.10;;;10.32;;
26598;SDS011;14240;51.064;16.612;2023-04-01T02:27:47;32.90;;;13.63;;
26598;SDS011;14240;51.064;16.612;2023-04-01T02:30:13;26.15;;;12.63;;
26598;SDS011;14240;51.064;16.612;2023-04-01T02:32:40;42.15;;;16.90;;
26598;SDS011;14240;51.064;16.612;2023-04-01T02:35:09;42.95;;;14.82;;
26598;SDS011;14240;51.064;16.612;2023-04-01T02:37:37;47.55;;;16.00;;
26598;SDS011;14240;51.064;16.612;2023-04-01T02:40:05;35.58;;;13.38;;
26598;SDS011;14240;51.064;16.612;2023-04-01T02:42:32;30.90;;;12.68;;
26598;SDS011;14240;51.064;16.612;2023-04-01T02:44:59;22.15;;;10.52;;
26598;SDS011;14240;51.064;16.612;2023-04-01T02:47:24;30.90;;;10.75;;
26598;SDS011;14240;51.064;16.612;2023-04-01T02:49:50;24.13;;;10.02;;
26598;SDS011;14240;51.064;16.612;2023-04-01T02:52:16;25.75;;;11.32;;
26598;SDS011;14240;51.064;16.612;2023-04-01T02:54:41;17.35;;;9.35;;
26598;SDS011;14240;51.064;16.612;2023-04-01T02:57:07;31.73;;;13.43;;
26598;SDS011;14240;51.064;16.612;2023-04-01T02:59:33;31.77;;;13.93;;
26598;SDS011;14240;51.064;16.612;2023-04-01T03:01:58;20.48;;;11.10;;
26598;SDS011;14240;51.064;16.612;2023-04-01T03:04:24;25.08;;;10.23;;
26598;SDS011;14240;51.064;16.612;2023-04-01T03:06:50;23.13;;;9.27;;
26598;SDS011;14240;51.064;16.612;2023-04-01T03:09:16;16.35;;;8.77;;
26598;SDS011;14240;51.064;16.612;2023-04-01T03:11:42;19.30;;;9.00;;
26598;SDS011;14240;51.064;16.612;2023-04-01T03:14:07;24.25;;;9.07;;
26598;SDS011;14240;51.064;16.612;2023-04-01T03:16:33;23.77;;;8.88;;
26598;SDS011;14240;51.064;16.612;2023-04-01T03:18:59;20.58;;;8.30;;
26598;SDS011;14240;51.064;16.612;2023-04-01T03:21:26;26.65;;;8.57;;
26598;SDS011;14240;51.064;16.612;2023-04-01T03:23:52;18.08;;;6.93;;
26598;SDS011;14240;51.064;16.612;2023-04-01T03:26:18;17.40;;;6.40;;
26598;SDS011;14240;51.064;16.612;2023-04-01T03:28:44;21.95;;;7.35;;
26598;SDS011;14240;51.064;16.612;2023-04-01T03:31:10;30.35;;;8.35;;
26598;SDS011;14240;51.064;16.612;2023-04-01T03:33:36;14.23;;;6.43;;
26598;SDS011;14240;51.064;16.612;2023-04-01T03:36:02;24.00;;;7.13;;
26598;SDS011;14240;51.064;16.612;2023-04-01T03:38:31;24.88;;;8.02;;
26598;SDS011;14240;51.064;16.612;2023-04-01T03:40:58;23.67;;;9.07;;
26598;SDS011;14240;51.064;16.612;2023-04-01T03:43:24;26.63;;;9.70;;
26598;SDS011;14240;51.064;16.612;2023-04-01T03:45:51;23.77;;;8.50;;
26598;SDS011;14240;51.064;16.612;2023-04-01T03:48:17;20.50;;;7.20;;
26598;SDS011;14240;51.064;16.612;2023-04-01T03:50:43;13.52;;;6.25;;
26598;SDS011;14240;51.064;16.612;2023-04-01T03:53:09;42.33;;;13.95;;
26598;SDS011;14240;51.064;16.612;2023-04-01T03:55:36;34.50;;;14.02;;
26598;SDS011;14240;51.064;16.612;2023-04-01T03:58:02;24.83;;;8.73;;
26598;SDS011;14240;51.064;16.612;2023-04-01T04:00:29;26.52;;;9.73;;
26598;SDS011;14240;51.064;16.612;2023-04-01T04:02:55;29.33;;;9.52;;
26598;SDS011;14240;51.064;16.612;2023-04-01T04:05:22;23.80;;;8.40;;
26598;SDS011;14240;51.064;16.612;2023-04-01T04:07:50;20.13;;;6.68;;
26598;SDS011;14240;51.064;16.612;2023-04-01T04:10:17;18.92;;;6.88;;
26598;SDS011;14240;51.064;16.612;2023-04-01T04:12:43;13.75;;;7.15;;
26598;SDS011;14240;51.064;16.612;2023-04-01T04:15:09;25.30;;;9.13;;
26598;SDS011;14240;51.064;16.612;2023-04-01T04:17:35;15.88;;;7.03;;
26598;SDS011;14240;51.064;16.612;2023-04-01T04:20:01;11.55;;;5.82;;
26598;SDS011;14240;51.064;16.612;2023-04-01T04:22:27;13.05;;;7.20;;
26598;SDS011;14240;51.064;16.612;2023-04-01T04:24:52;18.30;;;8.80;;
26598;SDS011;14240;51.064;16.612;2023-04-01T04:27:18;16.88;;;8.57;;
26598;SDS011;14240;51.064;16.612;2023-04-01T04:29:44;17.98;;;8.48;;
26598;SDS011;14240;51.064;16.612;2023-04-01T04:32:09;15.40;;;8.43;;
26598;SDS011;14240;51.064;16.612;2023-04-01T04:34:35;17.08;;;7.50;;
26598;SDS011;14240;51.064;16.612;2023-04-01T04:37:01;17.20;;;7.95;;
26598;SDS011;14240;51.064;16.612;2023-04-01T04:39:27;11.55;;;7.28;;
26598;SDS011;14240;51.064;16.612;2023-04-01T04:41:52;15.23;;;6.47;;
26598;SDS011;14240;51.064;16.612;2023-04-01T04:44:18;16.85;;;6.25;;
26598;SDS011;14240;51.064;16.612;2023-04-01T04:46:44;11.52;;;6.40;;
26598;SDS011;14240;51.064;16.612;2023-04-01T04:49:09;15.85;;;7.30;;
26598;SDS011;14240;51.064;16.612;2023-04-01T04:51:35;13.45;;;7.85;;
26598;SDS011;14240;51.064;16.612;2023-04-01T04:54:04;15.23;;;8.75;;
26598;SDS011;14240;51.064;16.612;2023-04-01T04:56:30;12.32;;;7.90;;
26598;SDS011;14240;51.064;16.612;2023-04-01T04:58:57;12.05;;;8.48;;
26598;SDS011;14240;51.064;16.612;2023-04-01T05:01:23;14.88;;;8.32;;
26598;SDS011;14240;51.064;16.612;2023-04-01T05:03:50;15.35;;;7.53;;
26598;SDS011;14240;51.064;16.612;2023-04-01T05:06:17;13.25;;;8.18;;
26598;SDS011;14240;51.064;16.612;2023-04-01T05:08:43;12.82;;;7.57;;
26598;SDS011;14240;51.064;16.612;2023-04-01T05:11:14;10.43;;;6.00;;
26598;SDS011;14240;51.064;16.612;2023-04-01T05:13:42;11.90;;;6.05;;
26598;SDS011;14240;51.064;16.612;2023-04-01T05:16:12;12.95;;;6.15;;
26598;SDS011;14240;51.064;16.612;2023-04-01T05:18:42;15.57;;;7.97;;
26598;SDS011;14240;51.064;16.612;2023-04-01T05:21:09;10.10;;;6.93;;
26598;SDS011;14240;51.064;16.612;2023-04-01T05:23:35;11.35;;;5.95;;
26598;SDS011;14240;51.064;16.612;2023-04-01T05:26:05;8.82;;;5.82;;
26598;SDS011;14240;51.064;16.612;2023-04-01T05:28:32;12.27;;;6.75;;
26598;SDS011;14240;51.064;16.612;2023-04-01T05:30:58;14.93;;;6.60;;
26598;SDS011;14240;51.064;16.612;2023-04-01T05:33:28;20.30;;;9.45;;
26598;SDS011;14240;51.064;16.612;2023-04-01T05:35:55;36.97;;;18.43;;
26598;SDS011;14240;51.064;16.612;2023-04-01T05:38:21;232.43;;;88.80;;
26598;SDS011;14240;51.064;16.612;2023-04-01T05:40:47;271.85;;;89.88;;
26598;SDS011;14240;51.064;16.612;2023-04-01T05:43:12;65.80;;;20.83;;
26598;SDS011;14240;51.064;16.612;2023-04-01T05:45:38;24.00;;;8.57;;
26598;SDS011;14240;51.064;16.612;2023-04-01T05:48:04;9.38;;;5.15;;
26598;SDS011;14240;51.064;16.612;2023-04-01T05:50:30;9.88;;;4.63;;
26598;SDS011;14240;51.064;16.612;2023-04-01T05:52:56;9.88;;;5.30;;
26598;SDS011;14240;51.064;16.612;2023-04-01T05:55:22;7.43;;;4.90;;
26598;SDS011;14240;51.064;16.612;2023-04-01T05:57:47;10.30;;;5.63;;
26598;SDS011;14240;51.064;16.612;2023-04-01T06:00:15;9.27;;;4.78;;
26598;SDS011;14240;51.064;16.612;2023-04-01T06:02:41;6.50;;;4.60;;
26598;SDS011;14240;51.064;16.612;2023-04-01T06:07:44;8.13;;;3.75;;
26598;SDS011;14240;51.064;16.612;2023-04-01T06:10:19;6.28;;;3.85;;
26598;SDS011;14240;51.064;16.612;2023-04-01T06:20:43;5.00;;;3.05;;
26598;SDS011;14240;51.064;16.612;2023-04-01T06:28:40;7.03;;;2.70;;
26598;SDS011;14240;51.064;16.612;2023-04-01T06:47:20;8.55;;;3.20;;
26598;SDS011;14240;51.064;16.612;2023-04-01T06:52:58;5.57;;;3.03;;
26598;SDS011;14240;51.064;16.612;2023-04-01T06:55:37;7.25;;;2.60;;
26598;SDS011;14240;51.064;16.612;2023-04-01T06:58:34;5.95;;;2.85;;
26598;SDS011;14240;51.064;16.612;2023-04-01T07:01:19;7.82;;;2.90;;
26598;SDS011;14240;51.064;16.612;2023-04-01T07:03:59;7.03;;;3.70;;
26598;SDS011;14240;51.064;16.612;2023-04-01T07:06:49;4.57;;;2.83;;
26598;SDS011;14240;51.064;16.612;2023-04-01T07:09:52;7.85;;;3.25;;
26598;SDS011;14240;51.064;16.612;2023-04-01T07:12:19;14.25;;;2.95;;
26598;SDS011;14240;51.064;16.612;2023-04-01T07:14:53;5.95;;;3.35;;
26598;SDS011;14240;51.064;16.612;2023-04-01T07:22:39;7.68;;;3.45;;
26598;SDS011;14240;51.064;16.612;2023-04-01T07:25:22;9.45;;;4.05;;
26598;SDS011;14240;51.064;16.612;2023-04-01T07:27:58;5.43;;;2.63;;
26598;SDS011;14240;51.064;16.612;2023-04-01T07:30:40;5.93;;;3.65;;
26598;SDS011;14240;51.064;16.612;2023-04-01T07:54:13;8.90;;;3.50;;
26598;SDS011;14240;51.064;16.612;2023-04-01T07:57:06;6.10;;;3.15;;
26598;SDS011;14240;51.064;16.612;2023-04-01T07:59:53;5.00;;;2.78;;
26598;SDS011;14240;51.064;16.612;2023-04-01T08:02:49;19.85;;;12.55;;
26598;SDS011;14240;51.064;16.612;2023-04-01T08:05:18;14.70;;;7.85;;
26598;SDS011;14240;51.064;16.612;2023-04-01T08:10:39;6.43;;;2.78;;
26598;SDS011;14240;51.064;16.612;2023-04-01T08:19:06;7.25;;;3.17;;
26598;SDS011;14240;51.064;16.612;2023-04-01T08:21:43;12.10;;;3.53;;
26598;SDS011;14240;51.064;16.612;2023-04-01T08:26:49;5.45;;;2.33;;
26598;SDS011;14240;51.064;16.612;2023-04-01T08:29:21;5.05;;;2.25;;
26598;SDS011;14240;51.064;16.612;2023-04-01T08:34:37;5.45;;;2.05;;
26598;SDS011;14240;51.064;16.612;2023-04-01T08:37:07;3.85;;;2.00;;
26598;SDS011;14240;51.064;16.612;2023-04-01T08:39:42;7.72;;;2.50;;
26598;SDS011;14240;51.064;16.612;2023-04-01T08:47:46;5.65;;;2.75;;
26598;SDS011;14240;51.064;16.612;2023-04-01T08:59:48;5.63;;;2.78;;
26598;SDS011;14240;51.064;16.612;2023-04-01T09:32:48;5.22;;;2.97;;
26598;SDS011;14240;51.064;16.612;2023-04-01T09:40:55;4.95;;;2.78;;
26598;SDS011;14240;51.064;16.612;2023-04-01T09:46:36;7.35;;;3.47;;
26598;SDS011;14240;51.064;16.612;2023-04-01T10:03:54;9.93;;;6.35;;
26598;SDS011;14240;51.064;16.612;2023-04-01T10:17:58;7.47;;;5.30;;
26598;SDS011;14240;51.064;16.612;2023-04-01T10:40:12;8.82;;;4.18;;
26598;SDS011;14240;51.064;16.612;2023-04-01T10:56:34;5.07;;;3.47;;
26598;SDS011;14240;51.064;16.612;2023-04-01T11:27:35;8.63;;;4.22;;
26598;SDS011;14240;51.064;16.612;2023-04-01T11:30:39;5.60;;;2.90;;
26598;SDS011;14240;51.064;16.612;2023-04-01T11:33:22;4.28;;;3.03;;
26598;SDS011;14240;51.064;16.612;2023-04-01T11:41:52;5.90;;;3.58;;
26598;SDS011;14240;51.064;16.612;2023-04-01T11:44:29;6.45;;;3.50;;
26598;SDS011;14240;51.064;16.612;2023-04-01T11:53:13;4.25;;;3.35;;
26598;SDS011;14240;51.064;16.612;2023-04-01T12:01:54;4.78;;;3.92;;
26598;SDS011;14240;51.064;16.612;2023-04-01T12:04:38;7.03;;;5.20;;
26598;SDS011;14240;51.064;16.612;2023-04-01T12:19:11;6.18;;;3.63;;
26598;SDS011;14240;51.064;16.612;2023-04-01T12:32:45;5.07;;;2.83;;
26598;SDS011;14240;51.064;16.612;2023-04-01T12:38:39;2.08;;;1.70;;
26598;SDS011;14240;51.064;16.612;2023-04-01T12:52:21;13.32;;;5.68;;
26598;SDS011;14240;51.064;16.612;2023-04-01T12:55:35;7.57;;;4.10;;
26598;SDS011;14240;51.064;16.612;2023-04-01T13:03:57;4.57;;;3.03;;
26598;SDS011;14240;51.064;16.612;2023-04-01T13:06:36;4.50;;;2.85;;
26598;SDS011;14240;51.064;16.612;2023-04-01T13:11:59;3.72;;;2.42;;
26598;SDS011;14240;51.064;16.612;2023-04-01T13:20:02;4.85;;;3.20;;
26598;SDS011;14240;51.064;16.612;2023-04-01T13:28:23;6.03;;;3.65;;
26598;SDS011;14240;51.064;16.612;2023-04-01T13:36:14;8.60;;;5.53;;
26598;SDS011;14240;51.064;16.612;2023-04-01T13:58:20;2.92;;;2.00;;
26598;SDS011;14240;51.064;16.612;2023-04-01T14:48:32;25.67;;;11.52;;
26598;SDS011;14240;51.064;16.612;2023-04-01T14:51:31;2.50;;;2.30;;
26598;SDS011;14240;51.064;16.612;2023-04-01T14:56:37;4.53;;;3.03;;
26598;SDS011;14240;51.064;16.612;2023-04-01T14:59:14;39.72;;;21.95;;
26598;SDS011;14240;51.064;16.612;2023-04-01T15:05:10;60.97;;;24.77;;
26598;SDS011;14240;51.064;16.612;2023-04-01T15:08:01;9.38;;;4.60;;
26598;SDS011;14240;51.064;16.612;2023-04-01T15:25:04;3.05;;;2.13;;
26598;SDS011;14240;51.064;16.612;2023-04-01T15:30:23;3.75;;;2.40;;
26598;SDS011;14240;51.064;16.612;2023-04-01T15:35:30;4.30;;;3.53;;
26598;SDS011;14240;51.064;16.612;2023-04-01T15:38:05;5.55;;;3.25;;
26598;SDS011;14240;51.064;16.612;2023-04-01T15:49:00;4.50;;;2.40;;
26598;SDS011;14240;51.064;16.612;2023-04-01T15:51:32;4.63;;;2.55;;
26598;SDS011;14240;51.064;16.612;2023-04-01T16:13:37;5.53;;;3.50;;
26598;SDS011;14240;51.064;16.612;2023-04-01T16:21:28;9.15;;;6.35;;
26598;SDS011;14240;51.064;16.612;2023-04-01T16:29:24;18.50;;;7.50;;
26598;SDS011;14240;51.064;16.612;2023-04-01T16:32:14;8.20;;;4.57;;
26598;SDS011;14240;51.064;16.612;2023-04-01T16:37:43;7.00;;;5.00;;
26598;SDS011;14240;51.064;16.612;2023-04-01T16:43:35;8.25;;;5.13;;
26598;SDS011;14240;51.064;16.612;2023-04-01T16:51:42;22.45;;;8.55;;
26598;SDS011;14240;51.064;16.612;2023-04-01T16:56:49;5.30;;;3.63;;
26598;SDS011;14240;51.064;16.612;2023-04-01T16:59:21;5.13;;;3.80;;
26598;SDS011;14240;51.064;16.612;2023-04-01T17:02:02;7.63;;;4.60;;
26598;SDS011;14240;51.064;16.612;2023-04-01T17:07:28;6.85;;;3.72;;
26598;SDS011;14240;51.064;16.612;2023-04-01T17:28:03;4.70;;;3.15;;
26598;SDS011;14240;51.064;16.612;2023-04-01T17:35:51;7.40;;;4.45;;
26598;SDS011;14240;51.064;16.612;2023-04-01T17:41:41;23.27;;;13.27;;
26598;SDS011;14240;51.064;16.612;2023-04-01T17:59:03;26.80;;;16.02;;
26598;SDS011;14240;51.064;16.612;2023-04-01T18:01:37;35.72;;;19.13;;
26598;SDS011;14240;51.064;16.612;2023-04-01T18:10:12;18.63;;;10.63;;
26598;SDS011;14240;51.064;16.612;2023-04-01T18:13:11;12.98;;;7.00;;
26598;SDS011;14240;51.064;16.612;2023-04-01T18:15:55;15.55;;;8.57;;
26598;SDS011;14240;51.064;16.612;2023-04-01T18:21:18;157.35;;;64.15;;
26598;SDS011;14240;51.064;16.612;2023-04-01T18:24:00;126.55;;;41.28;;
26598;SDS011;14240;51.064;16.612;2023-04-01T18:26:40;119.05;;;36.80;;
26598;SDS011;14240;51.064;16.612;2023-04-01T18:32:14;103.97;;;39.92;;
26598;SDS011;14240;51.064;16.612;2023-04-01T18:34:53;61.17;;;26.00;;
26598;SDS011;14240;51.064;16.612;2023-04-01T18:37:36;36.03;;;15.98;;
26598;SDS011;14240;51.064;16.612;2023-04-01T18:40:17;42.30;;;16.40;;
26598;SDS011;14240;51.064;16.612;2023-04-01T18:43:18;57.45;;;24.55;;
26598;SDS011;14240;51.064;16.612;2023-04-01T18:46:09;47.75;;;22.27;;
26598;SDS011;14240;51.064;16.612;2023-04-01T18:49:17;45.03;;;20.15;;
26598;SDS011;14240;51.064;16.612;2023-04-01T18:51:52;41.28;;;16.75;;
26598;SDS011;14240;51.064;16.612;2023-04-01T18:59:43;106.72;;;38.60;;
26598;SDS011;14240;51.064;16.612;2023-04-01T19:07:48;42.95;;;20.85;;
26598;SDS011;14240;51.064;16.612;2023-04-01T19:13:22;49.08;;;23.17;;
26598;SDS011;14240;51.064;16.612;2023-04-01T19:38:28;58.60;;;27.80;;
26598;SDS011;14240;51.064;16.612;2023-04-01T19:46:48;51.00;;;23.67;;
26598;SDS011;14240;51.064;16.612;2023-04-01T19:49:44;52.28;;;23.52;;
26598;SDS011;14240;51.064;16.612;2023-04-01T19:52:18;54.78;;;24.08;;
26598;SDS011;14240;51.064;16.612;2023-04-01T20:14:54;53.95;;;25.55;;
26598;SDS011;14240;51.064;16.612;2023-04-01T20:17:33;53.45;;;24.05;;
26598;SDS011;14240;51.064;16.612;2023-04-01T20:20:20;54.78;;;24.33;;
26598;SDS011;14240;51.064;16.612;2023-04-01T20:23:05;47.58;;;23.90;;
26598;SDS011;14240;51.064;16.612;2023-04-01T20:26:26;48.40;;;23.08;;
26598;SDS011;14240;51.064;16.612;2023-04-01T20:29:04;45.92;;;21.52;;
26598;SDS011;14240;51.064;16.612;2023-04-01T20:34:50;42.78;;;21.77;;
26598;SDS011;14240;51.064;16.612;2023-04-01T20:42:57;46.92;;;20.65;;
26598;SDS011;14240;51.064;16.612;2023-04-01T21:01:51;49.88;;;23.38;;
26598;SDS011;14240;51.064;16.612;2023-04-01T21:04:27;46.28;;;23.95;;
26598;SDS011;14240;51.064;16.612;2023-04-01T21:07:08;50.38;;;22.90;;
26598;SDS011;14240;51.064;16.612;2023-04-01T21:31:50;57.90;;;26.33;;
26598;SDS011;14240;51.064;16.612;2023-04-01T22:02:41;67.07;;;30.20;;
26598;SDS011;14240;51.064;16.612;2023-04-01T22:26:22;48.75;;;23.67;;
26598;SDS011;14240;51.064;16.612;2023-04-01T22:29:05;55.65;;;25.33;;
26598;SDS011;14240;51.064;16.612;2023-04-01T22:39:23;53.60;;;26.80;;
26598;SDS011;14240;51.064;16.612;2023-04-01T22:42:16;52.13;;;27.23;;
26598;SDS011;14240;51.064;16.612;2023-04-01T22:50:35;55.28;;;26.88;;
26598;SDS011;14240;51.064;16.612;2023-04-01T22:56:08;59.75;;;27.25;;
26598;SDS011;14240;51.064;16.612;2023-04-01T22:58:47;63.72;;;28.40;;
26598;SDS011;14240;51.064;16.612;2023-04-01T23:01:25;50.97;;;24.45;;
26598;SDS011;14240;51.064;16.612;2023-04-01T23:03:55;51.22;;;22.98;;
26598;SDS011;14240;51.064;16.612;2023-04-01T23:06:33;52.45;;;24.95;;
26598;SDS011;14240;51.064;16.612;2023-04-01T23:11:37;49.78;;;24.05;;
26598;SDS011;14240;51.064;16.612;2023-04-01T23:16:58;48.95;;;25.35;;
26598;SDS011;14240;51.064;16.612;2023-04-01T23:22:44;49.65;;;24.70;;
26598;SDS011;14240;51.064;16.612;2023-04-01T23:25:27;52.58;;;24.83;;
26598;SDS011;14240;51.064;16.612;2023-04-01T23:38:13;46.10;;;20.60;;
26598;SDS011;14240;51.064;16.612;2023-04-01T23:40:39;45.58;;;21.20;;
26598;SDS011;14240;51.064;16.612;2023-04-01T23:43:22;43.03;;;21.13;;
26598;SDS011;14240;51.064;16.612;2023-04-01T23:46:14;36.85;;;17.50;;
26598;SDS011;14240;51.064;16.612;2023-04-01T23:48:42;45.10;;;19.98;;
26598;SDS011;14240;51.064;16.612;2023-04-01T23:51:12;36.83;;;19.20;;
26598;SDS011;14240;51.064;16.612;2023-04-01T23:53:45;34.63;;;17.88;;
26598;SDS011;14240;51.064;16.612;2023-04-01T23:56:12;35.28;;;17.42;;
26598;SDS011;14240;51.064;16.612;2023-04-01T23:58:43;29.33;;;14.90;;
